Five Islands, Maine
Current Conditions -  °F | °C
As of 7:53 PM on Wednesday 22 Oct 2014 (Local Time) from KIWI Reporting Station
Overcast Overcast  
Wind Chill: 44°   Ceiling: 1300
Heat Index: 48°   Visibility: 10mi
Dew Point: 45°   Wind: 9mph
Humidity: 89%   Direction: 30°NNE
Pressure: 30.06"   Gusts: 25mph
Location:  43.8074°N, 69.7472°W
Report Text: KIWI 222353Z AUTO 03008G22KT 360V080 10SM OVC013 09/07 A3006 RMK AO2 SLP180 60023 T00890072 10094 20089 58004
Loading
Personal Weather Stations






























Interactive Weather Map
Tropical Storm Tracking
New forecast layout! Learn more

10-Day Weather Forecast

Advertisements
Track Severe Weather on mobile